createdAt,value
2019-05-11T00:01:35.548Z,18.70
2019-05-11T00:04:04.753Z,18.50
2019-05-11T00:06:33.997Z,19.37
2019-05-11T00:09:03.633Z,17.27
2019-05-11T00:11:32.887Z,16.37
2019-05-11T00:14:02.114Z,17.00
2019-05-11T00:16:31.326Z,16.97
2019-05-11T00:19:00.543Z,15.73
2019-05-11T00:21:29.836Z,15.50
2019-05-11T00:23:59.039Z,16.20
2019-05-11T00:26:28.244Z,16.23
2019-05-11T00:28:57.477Z,16.47
2019-05-11T00:31:26.656Z,16.43
2019-05-11T00:33:55.866Z,16.37
2019-05-11T00:36:25.070Z,15.73
2019-05-11T00:38:54.865Z,16.33
2019-05-11T00:41:24.108Z,15.57
2019-05-11T00:43:53.313Z,17.37
2019-05-11T00:46:22.533Z,19.27
2019-05-11T00:48:51.783Z,17.07
2019-05-11T00:51:21.050Z,17.87
2019-05-11T00:53:50.263Z,17.97
2019-05-11T00:56:19.477Z,17.87
2019-05-11T00:58:50.910Z,18.03
2019-05-11T01:01:17.975Z,18.13
2019-05-11T01:03:47.190Z,16.27
2019-05-11T01:06:16.423Z,17.83
2019-05-11T01:08:45.859Z,16.60
2019-05-11T01:11:14.879Z,16.27
2019-05-11T01:13:44.093Z,16.77
2019-05-11T01:16:13.302Z,17.57
2019-05-11T01:18:42.508Z,15.97
2019-05-11T01:21:11.741Z,16.97
2019-05-11T01:23:40.940Z,16.63
2019-05-11T01:26:10.149Z,18.17
2019-05-11T01:28:40.582Z,17.70
2019-05-11T01:31:09.779Z,18.23
2019-05-11T01:33:39.003Z,18.30
2019-05-11T01:36:08.269Z,18.57
2019-05-11T01:38:37.452Z,17.90
2019-05-11T01:41:06.683Z,18.07
2019-05-11T01:43:35.853Z,18.73
2019-05-11T01:46:05.068Z,18.73
2019-05-11T01:48:34.264Z,19.27
2019-05-11T01:51:03.446Z,18.90
2019-05-11T01:53:32.669Z,18.80
2019-05-11T01:56:01.850Z,19.67
2019-05-11T01:58:31.402Z,19.87
2019-05-11T02:01:00.614Z,18.77
2019-05-11T02:03:29.799Z,21.07
2019-05-11T02:05:58.984Z,19.33
2019-05-11T02:08:28.176Z,20.00
2019-05-11T02:10:57.383Z,19.30
2019-05-11T02:13:26.573Z,18.47
2019-05-11T02:15:55.797Z,19.10
2019-05-11T02:18:31.520Z,19.03
2019-05-11T02:21:00.770Z,19.13
2019-05-11T02:23:30.030Z,17.10
2019-05-11T02:25:59.913Z,18.50
2019-05-11T02:28:29.124Z,17.43
2019-05-11T02:30:58.428Z,17.93
2019-05-11T02:33:27.600Z,18.77
2019-05-11T02:35:56.806Z,17.20
2019-05-11T02:38:26.043Z,17.60
2019-05-11T02:40:55.269Z,17.97
2019-05-11T02:43:24.525Z,17.33
2019-05-11T02:45:53.740Z,16.53
2019-05-11T02:48:23.033Z,18.07
2019-05-11T02:50:52.269Z,18.47
2019-05-11T02:53:21.494Z,17.07
2019-05-11T02:55:51.133Z,18.83
2019-05-11T02:58:20.330Z,18.10
2019-05-11T03:00:49.526Z,18.80
2019-05-11T03:03:18.725Z,18.87
2019-05-11T03:05:47.941Z,18.83
2019-05-11T03:08:17.146Z,19.33
2019-05-11T03:10:46.339Z,19.10
2019-05-11T03:13:15.557Z,16.90
2019-05-11T03:15:44.797Z,17.80
2019-05-11T03:18:14.109Z,18.27
2019-05-11T03:20:43.323Z,18.33
2019-05-11T03:23:12.504Z,17.00
2019-05-11T03:25:41.722Z,16.90
2019-05-11T03:28:11.003Z,19.07
2019-05-11T03:30:40.153Z,16.63
2019-05-11T03:33:09.492Z,16.70
2019-05-11T03:35:38.863Z,17.63
2019-05-11T03:38:08.093Z,17.60
2019-05-11T03:40:37.291Z,17.17
2019-05-11T03:43:06.489Z,18.37
2019-05-11T03:45:35.718Z,16.43
2019-05-11T03:48:04.925Z,16.03
2019-05-11T03:50:34.111Z,15.23
2019-05-11T03:53:03.284Z,16.67
2019-05-11T03:55:32.510Z,16.43
2019-05-11T03:58:01.709Z,16.87
2019-05-11T04:00:30.952Z,15.60
2019-05-11T04:03:00.196Z,16.60
2019-05-11T04:05:29.382Z,15.43
2019-05-11T04:07:58.611Z,15.60
2019-05-11T04:10:27.791Z,15.50
2019-05-11T04:12:56.997Z,14.90
2019-05-11T04:15:26.204Z,16.57
2019-05-11T04:17:55.411Z,15.73
2019-05-11T04:20:24.672Z,15.37
2019-05-11T04:22:53.853Z,15.40
2019-05-11T04:25:23.074Z,15.50
2019-05-11T04:27:52.270Z,14.97
2019-05-11T04:30:21.521Z,15.33
2019-05-11T04:32:50.720Z,16.27
2019-05-11T04:35:19.961Z,16.50
2019-05-11T04:37:49.130Z,16.10
2019-05-11T04:40:18.397Z,16.00
2019-05-11T04:42:54.869Z,15.33
2019-05-11T04:45:16.792Z,15.70
2019-05-11T04:47:46.066Z,16.13
2019-05-11T04:50:15.258Z,16.17
2019-05-11T04:52:44.668Z,16.40
2019-05-11T04:55:13.936Z,16.40
2019-05-11T04:57:43.195Z,15.27
2019-05-11T05:00:12.408Z,14.50
2019-05-11T05:02:41.594Z,15.03
2019-05-11T05:05:11.453Z,16.03
2019-05-11T05:07:47.996Z,16.40
2019-05-11T05:10:14.114Z,15.67
2019-05-11T05:12:39.077Z,16.67
2019-05-11T05:15:08.330Z,16.13
2019-05-11T05:17:37.735Z,16.67
2019-05-11T05:20:07.019Z,15.93
2019-05-11T05:22:36.207Z,15.37
2019-05-11T05:25:05.491Z,15.83
2019-05-11T05:27:34.924Z,15.27
2019-05-11T05:32:38.909Z,16.27
2019-05-11T05:35:08.155Z,15.33
2019-05-11T05:37:37.332Z,15.47
2019-05-11T05:40:06.581Z,15.27
2019-05-11T05:42:35.755Z,16.17
2019-05-11T05:45:05.100Z,16.27
2019-05-11T05:47:34.303Z,17.57
2019-05-11T05:50:03.682Z,16.97
2019-05-11T05:52:32.916Z,16.73
2019-05-11T05:55:02.117Z,13.50
2019-05-11T05:57:31.324Z,13.37
2019-05-11T06:00:00.529Z,13.40
2019-05-11T06:02:29.785Z,11.13
2019-05-11T06:04:58.986Z,12.83
2019-05-11T06:07:28.168Z,11.97
2019-05-11T06:09:57.377Z,12.63
2019-05-11T06:12:26.618Z,10.73
2019-05-11T06:14:55.832Z,11.80
2019-05-11T06:17:25.053Z,11.07
2019-05-11T06:19:54.254Z,10.67
2019-05-11T06:22:23.443Z,10.83
2019-05-11T06:24:52.622Z,11.40
2019-05-11T06:27:21.856Z,9.77
2019-05-11T06:29:51.060Z,10.37
2019-05-11T06:32:20.237Z,9.47
2019-05-11T06:34:49.422Z,10.63
2019-05-11T06:37:18.601Z,9.60
2019-05-11T06:39:47.828Z,9.27
2019-05-11T06:42:17.009Z,10.93
2019-05-11T06:44:46.257Z,9.00
2019-05-11T06:47:15.445Z,8.77
2019-05-11T06:49:44.682Z,8.90
2019-05-11T06:52:13.881Z,8.97
2019-05-11T06:54:43.188Z,9.40
2019-05-11T06:57:12.360Z,9.00
2019-05-11T06:59:41.554Z,9.60
2019-05-11T07:02:10.778Z,8.70
2019-05-11T07:04:40.105Z,8.43
2019-05-11T07:07:09.297Z,10.33
2019-05-11T07:09:38.473Z,8.77
2019-05-11T07:12:07.780Z,8.30
2019-05-11T07:14:36.947Z,7.83
2019-05-11T07:17:06.167Z,7.60
2019-05-11T07:19:35.421Z,6.40
2019-05-11T07:22:04.633Z,6.00
2019-05-11T07:24:33.870Z,5.55
2019-05-11T07:27:03.049Z,5.40
2019-05-11T07:29:32.278Z,6.05
2019-05-11T07:32:10.210Z,5.67
2019-05-11T07:34:30.726Z,5.63
2019-05-11T07:36:59.955Z,5.23
2019-05-11T07:39:29.172Z,5.73
2019-05-11T07:41:58.571Z,6.50
2019-05-11T07:44:37.497Z,5.07
2019-05-11T07:46:58.727Z,5.20
2019-05-11T07:49:26.006Z,5.70
2019-05-11T07:51:55.217Z,4.53
2019-05-11T07:54:24.437Z,3.70
2019-05-11T07:56:53.770Z,3.07
2019-05-11T07:59:22.985Z,3.60
2019-05-11T08:01:52.191Z,3.30
2019-05-11T08:04:21.384Z,3.37
2019-05-11T08:06:50.688Z,3.10
2019-05-11T08:09:19.917Z,3.50
2019-05-11T08:11:49.181Z,2.93
2019-05-11T08:14:18.479Z,3.07
2019-05-11T08:16:48.170Z,2.87
2019-05-11T08:19:18.506Z,3.00
2019-05-11T08:21:48.067Z,3.02
2019-05-11T08:24:17.854Z,3.10
2019-05-11T08:26:44.740Z,2.83
2019-05-11T08:29:13.946Z,2.80
2019-05-11T08:31:43.146Z,3.00
2019-05-11T08:34:12.325Z,2.87
2019-05-11T08:36:41.518Z,2.70
2019-05-11T08:39:10.744Z,2.50
2019-05-11T08:41:39.984Z,3.10
2019-05-11T08:44:09.256Z,2.87
2019-05-11T08:46:38.792Z,3.80
2019-05-11T08:49:08.620Z,2.90
2019-05-11T08:51:38.680Z,2.30
2019-05-11T08:54:06.211Z,2.65
2019-05-11T08:56:37.986Z,5.37
2019-05-11T08:59:04.686Z,14.83
2019-05-11T09:01:33.911Z,5.03
2019-05-11T09:04:03.127Z,3.12
2019-05-11T09:06:32.358Z,2.80
2019-05-11T09:09:01.641Z,2.30
2019-05-11T09:11:30.893Z,2.75
2019-05-11T09:14:00.135Z,2.72
2019-05-11T09:16:29.334Z,2.77
2019-05-11T09:18:58.579Z,2.60
2019-05-11T09:21:28.230Z,3.10
2019-05-11T09:23:57.899Z,3.00
2019-05-11T09:26:28.465Z,3.10
2019-05-11T09:28:55.511Z,2.80
2019-05-11T09:31:24.737Z,2.47
2019-05-11T09:33:53.958Z,2.17
2019-05-11T09:36:23.430Z,2.80
2019-05-11T09:38:52.530Z,2.90
2019-05-11T09:41:21.813Z,2.62
2019-05-11T09:43:51.036Z,1.85
2019-05-11T09:46:20.285Z,2.50
2019-05-11T09:48:49.465Z,2.83
2019-05-11T09:51:18.720Z,2.22
2019-05-11T09:53:48.475Z,2.22
2019-05-11T09:56:18.278Z,2.27
2019-05-11T09:58:47.931Z,2.20
2019-05-11T10:01:18.039Z,2.37
2019-05-11T10:03:44.991Z,2.05
2019-05-11T10:06:14.233Z,2.58
2019-05-11T10:08:43.490Z,2.87
2019-05-11T10:11:12.709Z,2.40
2019-05-11T10:13:41.961Z,1.90
2019-05-11T10:16:11.144Z,2.80
2019-05-11T10:18:40.335Z,2.47
2019-05-11T10:21:09.501Z,2.63
2019-05-11T10:23:42.146Z,2.60
2019-05-11T10:26:08.148Z,2.70
2019-05-11T10:28:38.941Z,2.83
2019-05-11T10:31:08.564Z,2.50
2019-05-11T10:33:38.080Z,2.05
2019-05-11T10:36:05.227Z,1.92
2019-05-11T10:38:34.491Z,1.87
2019-05-11T10:41:03.669Z,1.97
2019-05-11T10:43:32.870Z,1.82
2019-05-11T10:46:16.142Z,2.23
2019-05-11T10:48:31.290Z,1.97
2019-05-11T10:51:00.457Z,2.30
2019-05-11T10:53:29.685Z,2.55
2019-05-11T10:55:58.863Z,1.90
2019-05-11T10:58:28.613Z,1.90
2019-05-11T11:00:58.201Z,2.17
2019-05-11T11:03:28.410Z,1.97
2019-05-11T11:05:57.909Z,1.50
2019-05-11T11:08:24.985Z,1.70
2019-05-11T11:10:54.205Z,2.05
2019-05-11T11:13:23.399Z,1.75
2019-05-11T11:15:52.639Z,2.05
2019-05-11T11:18:21.853Z,1.90
2019-05-11T11:20:51.044Z,1.92
2019-05-11T11:23:20.248Z,1.65
2019-05-11T11:25:49.465Z,1.70
2019-05-11T11:28:18.682Z,1.80
2019-05-11T11:30:49.200Z,2.00
2019-05-11T11:33:18.536Z,1.80
2019-05-11T11:35:47.798Z,2.00
2019-05-11T11:38:18.090Z,1.70
2019-05-11T11:40:48.163Z,2.02
2019-05-11T11:43:15.352Z,1.70
2019-05-11T11:45:44.555Z,2.15
2019-05-11T11:48:13.788Z,1.45
2019-05-11T11:50:43.044Z,1.40
2019-05-11T11:53:12.293Z,1.45
2019-05-11T11:55:41.479Z,1.70
2019-05-11T11:58:10.735Z,1.80
2019-05-11T12:00:39.950Z,1.85
2019-05-11T12:03:09.208Z,1.87
2019-05-11T12:05:38.712Z,1.80
2019-05-11T12:08:08.337Z,1.30
2019-05-11T12:10:37.946Z,1.77
2019-05-11T12:13:08.452Z,1.80
2019-05-11T12:15:35.550Z,1.57
2019-05-11T12:18:04.748Z,1.47
2019-05-11T12:20:33.973Z,1.52
2019-05-11T12:23:03.179Z,1.20
2019-05-11T12:25:32.389Z,1.87
2019-05-11T12:28:01.646Z,2.02
2019-05-11T12:30:30.864Z,1.70
2019-05-11T12:33:00.073Z,1.20
2019-05-11T12:35:29.419Z,1.70
2019-05-11T12:37:58.902Z,1.72
2019-05-11T12:40:28.388Z,1.67
2019-05-11T12:42:59.088Z,2.30
2019-05-11T12:45:26.344Z,1.47
2019-05-11T12:47:55.718Z,2.13
2019-05-11T12:50:24.920Z,2.83
2019-05-11T12:52:56.111Z,1.70
2019-05-11T12:55:23.374Z,2.30
2019-05-11T12:57:52.594Z,1.90
2019-05-11T13:00:21.822Z,1.40
2019-05-11T13:02:51.008Z,1.70
2019-05-11T13:05:20.199Z,1.20
2019-05-11T13:07:49.385Z,1.57
2019-05-11T13:10:18.660Z,1.87
2019-05-11T13:12:49.273Z,1.53
2019-05-11T13:15:17.515Z,1.30
2019-05-11T13:17:48.984Z,1.77
2019-05-11T13:20:17.919Z,1.40
2019-05-11T13:22:44.745Z,1.30
2019-05-11T13:25:13.927Z,1.13
2019-05-11T13:27:43.119Z,1.47
2019-05-11T13:30:12.425Z,1.10
2019-05-11T13:32:41.643Z,2.03
2019-05-11T13:35:10.848Z,1.30
2019-05-11T13:37:40.090Z,1.40
2019-05-11T13:40:09.279Z,1.40
2019-05-11T13:42:38.752Z,1.47
2019-05-11T13:45:08.561Z,1.30
2019-05-11T13:47:49.373Z,1.47
2019-05-11T13:50:07.737Z,1.40
2019-05-11T13:52:35.337Z,1.30
2019-05-11T13:55:04.670Z,1.10
2019-05-11T13:57:33.864Z,1.57
2019-05-11T14:00:03.197Z,1.20
2019-05-11T14:02:32.506Z,1.40
2019-05-11T14:05:01.705Z,1.20
2019-05-11T14:07:30.903Z,1.10
2019-05-11T14:10:00.155Z,1.27
2019-05-11T14:12:29.398Z,1.40
2019-05-11T14:14:58.566Z,1.63
2019-05-11T14:17:31.356Z,1.50
2019-05-11T14:19:58.422Z,1.60
2019-05-11T14:22:28.139Z,1.40
2019-05-11T14:24:55.422Z,1.63
2019-05-11T14:27:24.696Z,2.40
2019-05-11T14:29:53.840Z,1.33
2019-05-11T14:32:23.030Z,1.50
2019-05-11T14:34:52.231Z,1.53
2019-05-11T14:37:21.394Z,1.47
2019-05-11T14:39:50.633Z,1.20
2019-05-11T14:42:22.048Z,1.30
2019-05-11T14:44:49.081Z,1.13
2019-05-11T14:47:18.262Z,1.20
2019-05-11T14:49:48.364Z,1.23
2019-05-11T14:52:18.705Z,1.40
2019-05-11T14:54:48.408Z,1.67
2019-05-11T14:57:15.309Z,1.20
2019-05-11T14:59:44.480Z,1.30
2019-05-11T15:02:19.177Z,1.47
2019-05-11T15:04:48.520Z,1.30
2019-05-11T15:07:17.829Z,1.90
2019-05-11T15:09:48.057Z,1.40
2019-05-11T15:12:18.114Z,1.50
2019-05-11T15:14:45.238Z,1.40
2019-05-11T15:17:14.461Z,1.10
2019-05-11T15:19:43.655Z,1.60
2019-05-11T15:22:12.825Z,1.33
2019-05-11T15:24:42.045Z,1.33
2019-05-11T15:27:11.332Z,1.83
2019-05-11T15:29:40.525Z,1.50
2019-05-11T15:32:09.719Z,1.30
2019-05-11T15:34:38.938Z,1.70
2019-05-11T15:37:08.479Z,1.83
2019-05-11T15:39:37.840Z,2.13
2019-05-11T15:42:11.724Z,1.77
2019-05-11T15:44:37.845Z,1.37
2019-05-11T15:47:07.610Z,1.30
2019-05-11T15:49:34.370Z,1.53
2019-05-11T15:52:03.849Z,1.60
2019-05-11T15:54:33.230Z,1.70
2019-05-11T15:57:02.444Z,1.50
2019-05-11T15:59:31.641Z,1.60
2019-05-11T16:02:00.853Z,1.40
2019-05-11T16:04:30.084Z,2.03
2019-05-11T16:07:00.162Z,1.93
2019-05-11T16:09:29.007Z,1.30
2019-05-11T16:11:58.037Z,1.50
2019-05-11T16:14:28.259Z,1.90
2019-05-11T16:16:58.402Z,2.03
2019-05-11T16:19:27.745Z,1.50
2019-05-11T16:21:54.980Z,1.77
2019-05-11T16:24:24.203Z,1.80
2019-05-11T16:26:53.449Z,1.33
2019-05-11T16:29:22.672Z,1.70
2019-05-11T16:31:51.910Z,1.60
2019-05-11T16:34:21.128Z,1.50
2019-05-11T16:36:50.370Z,1.90
2019-05-11T16:39:19.602Z,1.80
2019-05-11T16:41:48.827Z,2.23
2019-05-11T16:44:18.580Z,1.90
2019-05-11T16:46:48.064Z,2.73
2019-05-11T16:49:26.077Z,2.13
2019-05-11T16:51:45.665Z,2.00
2019-05-11T16:54:14.937Z,1.43
2019-05-11T16:56:44.114Z,1.80
2019-05-11T16:59:13.349Z,2.07
2019-05-11T17:01:42.581Z,2.30
2019-05-11T17:04:11.814Z,1.93
2019-05-11T17:06:41.051Z,2.40
2019-05-11T17:09:10.221Z,2.57
2019-05-11T17:11:39.473Z,2.43
2019-05-11T17:14:08.686Z,2.83
2019-05-11T17:16:38.496Z,2.90
2019-05-11T17:19:07.847Z,2.40
2019-05-11T17:21:38.137Z,2.60
2019-05-11T17:24:05.666Z,2.37
2019-05-11T17:26:34.912Z,3.37
2019-05-11T17:29:04.107Z,2.60
2019-05-11T17:31:33.320Z,2.30
2019-05-11T17:34:02.537Z,2.17
2019-05-11T17:36:31.807Z,2.80
2019-05-11T17:39:01.032Z,3.30
2019-05-11T17:41:30.230Z,2.83
2019-05-11T17:43:59.434Z,2.10
2019-05-11T17:46:28.643Z,2.90
2019-05-11T17:48:57.833Z,2.53
2019-05-11T17:51:28.559Z,5.00
2019-05-11T17:53:56.325Z,3.83
2019-05-11T17:56:27.893Z,5.00
2019-05-11T17:58:54.739Z,5.07
2019-05-11T18:01:23.912Z,5.87
2019-05-11T18:03:53.065Z,4.67
2019-05-11T18:06:22.346Z,4.20
2019-05-11T18:08:51.519Z,3.30
2019-05-11T18:11:20.720Z,2.50
2019-05-11T18:13:49.921Z,2.97
2019-05-11T18:16:19.214Z,2.80
2019-05-11T18:18:48.513Z,4.13
2019-05-11T18:21:18.865Z,3.70
2019-05-11T18:23:48.028Z,4.37
2019-05-11T18:26:18.132Z,4.60
2019-05-11T18:28:45.396Z,5.20
2019-05-11T18:31:14.621Z,6.47
2019-05-11T18:33:44.037Z,4.60
2019-05-11T18:36:13.290Z,5.13
2019-05-11T18:38:42.490Z,5.30
2019-05-11T18:41:11.687Z,5.87
2019-05-11T18:43:40.881Z,5.13
2019-05-11T18:46:10.080Z,6.00
2019-05-11T18:48:39.443Z,6.03
2019-05-11T18:51:08.781Z,7.23
2019-05-11T18:53:38.010Z,7.63
2019-05-11T18:56:08.757Z,7.30
2019-05-11T18:58:38.349Z,7.93
2019-05-11T19:01:05.954Z,8.37
2019-05-11T19:03:35.163Z,8.07
2019-05-11T19:06:04.378Z,6.97
2019-05-11T19:08:33.705Z,7.77
2019-05-11T19:11:02.921Z,6.90
2019-05-11T19:13:32.113Z,7.23
2019-05-11T19:16:01.359Z,8.40
2019-05-11T19:18:30.989Z,7.77
2019-05-11T19:21:00.243Z,8.33
2019-05-11T19:23:29.923Z,8.57
2019-05-11T19:25:59.602Z,7.30
2019-05-11T19:28:28.771Z,8.13
2019-05-11T19:30:59.163Z,7.70
2019-05-11T19:33:27.783Z,8.07
2019-05-11T19:35:58.681Z,8.37
2019-05-11T19:38:28.035Z,8.13
2019-05-11T19:40:55.871Z,8.50
2019-05-11T19:43:27.668Z,11.40
2019-05-11T19:45:54.992Z,9.87
2019-05-11T19:48:24.185Z,10.63
2019-05-11T19:51:04.638Z,8.63
2019-05-11T19:53:22.586Z,9.53
2019-05-11T19:55:51.894Z,7.47
2019-05-11T19:58:21.376Z,7.50
2019-05-11T20:00:51.311Z,7.37
2019-05-11T20:03:20.552Z,5.40
2019-05-11T20:05:49.746Z,5.53
2019-05-11T20:08:18.984Z,5.57
2019-05-11T20:10:48.763Z,4.87
2019-05-11T20:13:18.102Z,6.20
2019-05-11T20:15:48.561Z,6.47
2019-05-11T20:18:18.507Z,6.50
2019-05-11T20:20:48.764Z,5.63
2019-05-11T20:23:18.040Z,4.63
2019-05-11T20:25:47.853Z,8.83
2019-05-11T20:28:18.296Z,11.23
2019-05-11T20:30:48.271Z,13.30
2019-05-11T20:33:18.746Z,11.07
2019-05-11T20:35:45.735Z,12.87
2019-05-11T20:38:14.984Z,8.17
2019-05-11T20:40:44.205Z,11.30
2019-05-11T20:43:13.425Z,8.07
2019-05-11T20:45:42.640Z,13.00
2019-05-11T20:48:11.852Z,9.63
2019-05-11T20:50:41.069Z,7.20
2019-05-11T20:53:10.321Z,11.07
2019-05-11T20:55:39.565Z,9.10
2019-05-11T20:58:08.809Z,9.93
2019-05-11T21:00:38.382Z,8.67
2019-05-11T21:03:07.975Z,6.70
2019-05-11T21:05:36.504Z,6.00
2019-05-11T21:08:05.727Z,6.40
2019-05-11T21:10:35.028Z,6.30
2019-05-11T21:13:04.230Z,5.00
2019-05-11T21:15:33.426Z,5.57
2019-05-11T21:18:02.664Z,5.90
2019-05-11T21:20:31.917Z,5.50
2019-05-11T21:23:01.100Z,5.30
2019-05-11T21:25:30.295Z,5.50
2019-05-11T21:27:59.516Z,5.10
2019-05-11T21:30:28.751Z,5.50
2019-05-11T21:32:58.396Z,5.37
2019-05-11T21:35:28.142Z,6.10
2019-05-11T21:37:58.001Z,5.47
2019-05-11T21:40:25.859Z,6.23
2019-05-11T21:42:55.067Z,8.33
2019-05-11T21:45:24.311Z,7.47
2019-05-11T21:47:53.506Z,5.93
2019-05-11T21:50:22.855Z,6.60
2019-05-11T21:52:54.234Z,6.57
2019-05-11T21:55:21.412Z,6.50
2019-05-11T21:57:50.610Z,7.20
2019-05-11T22:00:19.914Z,6.27
2019-05-11T22:02:49.102Z,6.00
2019-05-11T22:05:20.820Z,7.30
2019-05-11T22:07:49.009Z,6.07
2019-05-11T22:10:17.784Z,6.03
2019-05-11T22:12:46.098Z,6.00
2019-05-11T22:15:15.362Z,5.57
2019-05-11T22:17:44.603Z,5.47
2019-05-11T22:20:13.798Z,5.07
2019-05-11T22:22:43.193Z,4.77
2019-05-11T22:25:12.396Z,4.53
2019-05-11T22:27:41.696Z,4.40
2019-05-11T22:30:10.906Z,4.23
2019-05-11T22:32:40.154Z,4.20
2019-05-11T22:35:09.370Z,4.37
2019-05-11T22:37:39.202Z,4.03
2019-05-11T22:40:08.452Z,4.20
2019-05-11T22:42:37.247Z,4.67
2019-05-11T22:45:08.394Z,4.53
2019-05-11T22:47:35.672Z,5.13
2019-05-11T22:50:05.123Z,4.30
2019-05-11T22:52:36.693Z,4.30
2019-05-11T22:55:03.577Z,3.83
2019-05-11T22:57:32.785Z,3.70
2019-05-11T23:00:02.086Z,3.67
2019-05-11T23:02:31.274Z,3.50
2019-05-11T23:05:00.517Z,3.53
2019-05-11T23:07:29.752Z,2.97
2019-05-11T23:10:00.590Z,3.27
2019-05-11T23:12:28.596Z,3.23
2019-05-11T23:15:03.047Z,4.20
2019-05-11T23:17:32.339Z,3.40
2019-05-11T23:20:01.918Z,2.90
2019-05-11T23:22:31.144Z,3.10
2019-05-11T23:25:00.412Z,2.53
2019-05-11T23:27:29.581Z,3.10
2019-05-11T23:29:58.813Z,2.83
2019-05-11T23:32:28.008Z,2.97
2019-05-11T23:34:57.304Z,2.53
2019-05-11T23:37:27.840Z,3.00
2019-05-11T23:39:58.410Z,2.63
2019-05-11T23:42:25.237Z,2.73
2019-05-11T23:44:54.447Z,2.30
2019-05-11T23:47:23.648Z,2.40
2019-05-11T23:49:52.920Z,2.57
2019-05-11T23:52:22.141Z,2.63
2019-05-11T23:54:51.403Z,2.57
2019-05-11T23:57:20.695Z,1.90
2019-05-11T23:59:49.874Z,2.47
